LVCAM SAWH-SCNT
Flight info
| Callsign | LVCAM |
|---|---|
| Flight time | 0h 44m |
| Altitude | 30000 |
| Route | ROMIV2B ROMIV UL670 ALMIR DCT NAS DCT SIRUN SIRUN3 |
| Aircraft | A320/M-SDE3FGHIRWY/LB1 |
Departure
| Time | 2026-04-25 20:15 |
|---|---|
| Airport | Ushuaia - Malvinas Argentinas International Airport (SAWH) |
Arrival
| Time | 2026-04-25 20:59 |
|---|---|
| Airport | Lieutenant Julio Gallardo Airport (SCNT) |
| Time | Latitude | Longitude | Altitude | Speed | Heading |
|---|---|---|---|---|---|
| 2026-04-25 19:38 | -54.84024 | -68.31177 | 83 ft | 0 kts | 349° |
| 2026-04-25 20:04 | -54.84038 | -68.31172 | 88 ft | 4 kts | 344° |
| 2026-04-25 20:04 | -54.84064 | -68.31160 | 83 ft | 4 kts | 358° |
| 2026-04-25 20:04 | -54.84085 | -68.31162 | 83 ft | 4 kts | 33° |
| 2026-04-25 20:04 | -54.84095 | -68.31194 | 87 ft | 4 kts | 86° |
| 2026-04-25 20:05 | -54.84096 | -68.31222 | 85 ft | 0 kts | 85° |
| 2026-04-25 20:09 | -54.84095 | -68.31216 | 83 ft | 2 kts | 85° |
| 2026-04-25 20:09 | -54.84093 | -68.31177 | 83 ft | 5 kts | 84° |
| 2026-04-25 20:09 | -54.84090 | -68.31107 | 83 ft | 7 kts | 86° |
| 2026-04-25 20:09 | -54.84097 | -68.31015 | 84 ft | 9 kts | 119° |
| 2026-04-25 20:10 | -54.84158 | -68.30981 | 83 ft | 11 kts | 174° |
| 2026-04-25 20:10 | -54.84240 | -68.30968 | 85 ft | 13 kts | 175° |
| 2026-04-25 20:10 | -54.84337 | -68.30954 | 84 ft | 14 kts | 165° |
| 2026-04-25 20:10 | -54.84377 | -68.30797 | 85 ft | 17 kts | 88° |
| 2026-04-25 20:11 | -54.84368 | -68.30564 | 81 ft | 21 kts | 85° |
| 2026-04-25 20:11 | -54.84358 | -68.30295 | 81 ft | 23 kts | 86° |
| 2026-04-25 20:11 | -54.84347 | -68.30003 | 82 ft | 25 kts | 85° |
| 2026-04-25 20:11 | -54.84335 | -68.29700 | 85 ft | 26 kts | 86° |
| 2026-04-25 20:12 | -54.84323 | -68.29374 | 87 ft | 29 kts | 86° |
| 2026-04-25 20:12 | -54.84307 | -68.28977 | 83 ft | 37 kts | 86° |
| 2026-04-25 20:12 | -54.84288 | -68.28484 | 81 ft | 44 kts | 85° |
| 2026-04-25 20:12 | -54.84280 | -68.28302 | 81 ft | 46 kts | 86° |
| 2026-04-25 20:13 | -54.84237 | -68.27531 | 85 ft | 37 kts | 74° |
| 2026-04-25 20:13 | -54.84210 | -68.27266 | 84 ft | 11 kts | 101° |
| 2026-04-25 20:13 | -54.84243 | -68.27308 | 83 ft | 4 kts | 267° |
| 2026-04-25 20:13 | -54.84243 | -68.27313 | 83 ft | 0 kts | 268° |
| 2026-04-25 20:14 | -54.84246 | -68.27424 | 85 ft | 36 kts | 267° |
| 2026-04-25 20:14 | -54.84283 | -68.28304 | 84 ft | 107 kts | 265° |
| 2026-04-25 20:14 | -54.84374 | -68.29883 | 239 ft | 140 kts | 256° |
| 2026-04-25 20:15 | -54.84470 | -68.31495 | 989 ft | 134 kts | 265° |
| 2026-04-25 20:15 | -54.84528 | -68.33109 | 1648 ft | 135 kts | 264° |
| 2026-04-25 20:15 | -54.84675 | -68.34784 | 2105 ft | 150 kts | 248° |
| 2026-04-25 20:15 | -54.85263 | -68.36387 | 2449 ft | 166 kts | 223° |
| 2026-04-25 20:16 | -54.86255 | -68.37423 | 3003 ft | 170 kts | 197° |
| 2026-04-25 20:16 | -54.87431 | -68.37580 | 3602 ft | 174 kts | 173° |
| 2026-04-25 20:16 | -54.88553 | -68.36751 | 4202 ft | 182 kts | 147° |
| 2026-04-25 20:16 | -54.89344 | -68.34976 | 4787 ft | 195 kts | 118° |
| 2026-04-25 20:17 | -54.89518 | -68.32590 | 5342 ft | 210 kts | 86° |
| 2026-04-25 20:17 | -54.89153 | -68.30112 | 5887 ft | 214 kts | 80° |
| 2026-04-25 20:17 | -54.88748 | -68.27605 | 6423 ft | 217 kts | 80° |
| 2026-04-25 20:17 | -54.88342 | -68.25082 | 6980 ft | 218 kts | 80° |
| 2026-04-25 20:18 | -54.87937 | -68.22540 | 7513 ft | 220 kts | 80° |
| 2026-04-25 20:18 | -54.87531 | -68.19972 | 8050 ft | 223 kts | 80° |
| 2026-04-25 20:18 | -54.87121 | -68.17371 | 8564 ft | 225 kts | 80° |
| 2026-04-25 20:18 | -54.86706 | -68.14749 | 9084 ft | 227 kts | 80° |
| 2026-04-25 20:19 | -54.86422 | -68.12065 | 9539 ft | 230 kts | 90° |
| 2026-04-25 20:19 | -54.85923 | -68.09274 | 9691 ft | 263 kts | 57° |
| 2026-04-25 20:19 | -54.84448 | -68.07222 | 9971 ft | 288 kts | 20° |
| 2026-04-25 20:19 | -54.82427 | -68.06835 | 10272 ft | 304 kts | 346° |
| 2026-04-25 20:20 | -54.80500 | -68.08360 | 10551 ft | 314 kts | 314° |
| 2026-04-25 20:20 | -54.79185 | -68.11404 | 10800 ft | 325 kts | 291° |
| 2026-04-25 20:20 | -54.78252 | -68.15092 | 10963 ft | 345 kts | 288° |
| 2026-04-25 20:20 | -54.77291 | -68.18970 | 11470 ft | 355 kts | 289° |
| 2026-04-25 20:21 | -54.76314 | -68.22916 | 12164 ft | 358 kts | 289° |
| 2026-04-25 20:21 | -54.75330 | -68.26882 | 12832 ft | 361 kts | 289° |
| 2026-04-25 20:21 | -54.74338 | -68.30890 | 13469 ft | 365 kts | 289° |
| 2026-04-25 20:21 | -54.73333 | -68.34938 | 14103 ft | 369 kts | 289° |
| 2026-04-25 20:22 | -54.72314 | -68.39025 | 14725 ft | 373 kts | 289° |
| 2026-04-25 20:22 | -54.71970 | -68.40399 | 14937 ft | 375 kts | 289° |
| 2026-04-25 20:22 | -54.70239 | -68.47319 | 15917 ft | 380 kts | 289° |
| 2026-04-25 20:22 | -54.69189 | -68.51517 | 16475 ft | 383 kts | 289° |
| 2026-04-25 20:23 | -54.68131 | -68.55755 | 17016 ft | 386 kts | 289° |
| 2026-04-25 20:23 | -54.66929 | -68.59932 | 17540 ft | 393 kts | 297° |
| 2026-04-25 20:23 | -54.65318 | -68.63781 | 18020 ft | 401 kts | 307° |
| 2026-04-25 20:23 | -54.63409 | -68.67315 | 18513 ft | 405 kts | 310° |
| 2026-04-25 20:24 | -54.61474 | -68.70848 | 18987 ft | 408 kts | 310° |
| 2026-04-25 20:24 | -54.59524 | -68.74406 | 19453 ft | 411 kts | 310° |
| 2026-04-25 20:24 | -54.57558 | -68.77992 | 19920 ft | 414 kts | 309° |
| 2026-04-25 20:24 | -54.55578 | -68.81607 | 20358 ft | 417 kts | 309° |
| 2026-04-25 20:25 | -54.53582 | -68.85243 | 20777 ft | 420 kts | 310° |
| 2026-04-25 20:25 | -54.51573 | -68.88894 | 21202 ft | 423 kts | 310° |
| 2026-04-25 20:25 | -54.49550 | -68.92566 | 21612 ft | 425 kts | 310° |
| 2026-04-25 20:25 | -54.47513 | -68.96261 | 21995 ft | 428 kts | 310° |
| 2026-04-25 20:26 | -54.45463 | -68.99977 | 22402 ft | 431 kts | 310° |
| 2026-04-25 20:26 | -54.43397 | -69.03715 | 22782 ft | 433 kts | 310° |
| 2026-04-25 20:26 | -54.41322 | -69.07463 | 23147 ft | 436 kts | 310° |
| 2026-04-25 20:26 | -54.39230 | -69.11237 | 23518 ft | 438 kts | 310° |
| 2026-04-25 20:27 | -54.37129 | -69.15022 | 23891 ft | 441 kts | 310° |
| 2026-04-25 20:27 | -54.35011 | -69.18824 | 24244 ft | 443 kts | 310° |
| 2026-04-25 20:27 | -54.32880 | -69.22645 | 24583 ft | 446 kts | 310° |
| 2026-04-25 20:27 | -54.30730 | -69.26487 | 24920 ft | 449 kts | 310° |
| 2026-04-25 20:28 | -54.28569 | -69.30343 | 25231 ft | 451 kts | 309° |
| 2026-04-25 20:28 | -54.26405 | -69.34198 | 25505 ft | 455 kts | 310° |
| 2026-04-25 20:28 | -54.24213 | -69.38104 | 25807 ft | 458 kts | 309° |
| 2026-04-25 20:28 | -54.22002 | -69.42039 | 26102 ft | 461 kts | 309° |
| 2026-04-25 20:29 | -54.19779 | -69.45992 | 26385 ft | 464 kts | 309° |
| 2026-04-25 20:29 | -54.17542 | -69.49965 | 26642 ft | 466 kts | 309° |
| 2026-04-25 20:29 | -54.15291 | -69.53949 | 26903 ft | 469 kts | 309° |
| 2026-04-25 20:29 | -54.13036 | -69.57933 | 27147 ft | 472 kts | 309° |
| 2026-04-25 20:30 | -54.10754 | -69.61958 | 27403 ft | 474 kts | 309° |
| 2026-04-25 20:30 | -54.08457 | -69.65996 | 27636 ft | 477 kts | 309° |
| 2026-04-25 20:30 | -54.06147 | -69.70049 | 27913 ft | 479 kts | 309° |
| 2026-04-25 20:30 | -54.03834 | -69.74107 | 28255 ft | 479 kts | 309° |
| 2026-04-25 20:31 | -54.01536 | -69.78118 | 28570 ft | 480 kts | 311° |
| 2026-04-25 20:31 | -53.98986 | -69.81821 | 28867 ft | 486 kts | 319° |
| 2026-04-25 20:31 | -53.96155 | -69.84994 | 29176 ft | 489 kts | 323° |
| 2026-04-25 20:31 | -53.93279 | -69.88075 | 29459 ft | 490 kts | 323° |
| 2026-04-25 20:32 | -53.90401 | -69.91167 | 29764 ft | 491 kts | 323° |
| 2026-04-25 20:32 | -53.87530 | -69.94253 | 30061 ft | 492 kts | 323° |
| 2026-04-25 20:32 | -53.84644 | -69.97350 | 30360 ft | 492 kts | 323° |
| 2026-04-25 20:32 | -53.81758 | -70.00444 | 30663 ft | 492 kts | 323° |
| 2026-04-25 20:33 | -53.78885 | -70.03518 | 30969 ft | 493 kts | 323° |
| 2026-04-25 20:33 | -53.75992 | -70.06613 | 31262 ft | 493 kts | 323° |
| 2026-04-25 20:33 | -53.73096 | -70.09712 | 31563 ft | 494 kts | 323° |
| 2026-04-25 20:33 | -53.72144 | -70.10727 | 31666 ft | 493 kts | 323° |
| 2026-04-25 20:34 | -53.67341 | -70.15837 | 32162 ft | 493 kts | 323° |
| 2026-04-25 20:34 | -53.64442 | -70.18904 | 32447 ft | 494 kts | 324° |
| 2026-04-25 20:34 | -53.61535 | -70.21972 | 32719 ft | 494 kts | 324° |
| 2026-04-25 20:34 | -53.58629 | -70.25033 | 33010 ft | 494 kts | 324° |
| 2026-04-25 20:35 | -53.55722 | -70.28092 | 33303 ft | 494 kts | 324° |
| 2026-04-25 20:35 | -53.52816 | -70.31155 | 33576 ft | 494 kts | 324° |
| 2026-04-25 20:35 | -53.49905 | -70.34223 | 33824 ft | 495 kts | 324° |
| 2026-04-25 20:35 | -53.46992 | -70.37290 | 33899 ft | 497 kts | 324° |
| 2026-04-25 20:36 | -53.41125 | -70.43452 | 33913 ft | 500 kts | 324° |
| 2026-04-25 20:36 | -53.35249 | -70.49584 | 33915 ft | 500 kts | 324° |
| 2026-04-25 20:37 | -53.29359 | -70.55708 | 33916 ft | 500 kts | 324° |
| 2026-04-25 20:37 | -53.23464 | -70.61820 | 33915 ft | 499 kts | 324° |
| 2026-04-25 20:38 | -53.17570 | -70.67914 | 33914 ft | 500 kts | 324° |
| 2026-04-25 20:38 | -53.11674 | -70.73993 | 33912 ft | 499 kts | 324° |
| 2026-04-25 20:39 | -53.05776 | -70.80051 | 33913 ft | 499 kts | 324° |
| 2026-04-25 20:39 | -53.02822 | -70.83078 | 33738 ft | 499 kts | 323° |
| 2026-04-25 20:39 | -53.01855 | -70.84122 | 33660 ft | 498 kts | 321° |
| 2026-04-25 20:40 | -52.97485 | -70.90257 | 32204 ft | 496 kts | 310° |
| 2026-04-25 20:40 | -52.95040 | -70.94307 | 31222 ft | 500 kts | 310° |
| 2026-04-25 20:40 | -52.92578 | -70.98380 | 30227 ft | 503 kts | 310° |
| 2026-04-25 20:40 | -52.90095 | -71.02466 | 29312 ft | 504 kts | 310° |
| 2026-04-25 20:41 | -52.87625 | -71.06499 | 28295 ft | 496 kts | 311° |
| 2026-04-25 20:41 | -52.85154 | -71.10518 | 26778 ft | 504 kts | 311° |
| 2026-04-25 20:41 | -52.82661 | -71.14563 | 25848 ft | 501 kts | 311° |
| 2026-04-25 20:41 | -52.80196 | -71.18538 | 24534 ft | 497 kts | 312° |
| 2026-04-25 20:42 | -52.77737 | -71.22506 | 23744 ft | 491 kts | 312° |
| 2026-04-25 20:42 | -52.75315 | -71.26422 | 22902 ft | 485 kts | 312° |
| 2026-04-25 20:42 | -52.72922 | -71.30288 | 22109 ft | 480 kts | 312° |
| 2026-04-25 20:42 | -52.70566 | -71.34090 | 21360 ft | 475 kts | 312° |
| 2026-04-25 20:43 | -52.68221 | -71.37865 | 20600 ft | 469 kts | 313° |
| 2026-04-25 20:43 | -52.65901 | -71.41594 | 19863 ft | 464 kts | 313° |
| 2026-04-25 20:43 | -52.63606 | -71.45278 | 19148 ft | 459 kts | 313° |
| 2026-04-25 20:43 | -52.61338 | -71.48913 | 18471 ft | 454 kts | 313° |
| 2026-04-25 20:44 | -52.59091 | -71.52507 | 17791 ft | 449 kts | 313° |
| 2026-04-25 20:44 | -52.56873 | -71.56053 | 17134 ft | 443 kts | 313° |
| 2026-04-25 20:44 | -52.54681 | -71.59553 | 16527 ft | 437 kts | 313° |
| 2026-04-25 20:44 | -52.52518 | -71.63004 | 15916 ft | 432 kts | 313° |
| 2026-04-25 20:45 | -52.50385 | -71.66400 | 15368 ft | 426 kts | 313° |
| 2026-04-25 20:45 | -52.48277 | -71.69751 | 14813 ft | 420 kts | 313° |
| 2026-04-25 20:45 | -52.46197 | -71.73048 | 14278 ft | 414 kts | 313° |
| 2026-04-25 20:45 | -52.44143 | -71.76296 | 13717 ft | 409 kts | 313° |
| 2026-04-25 20:46 | -52.42115 | -71.79498 | 13166 ft | 403 kts | 313° |
| 2026-04-25 20:46 | -52.40112 | -71.82661 | 12583 ft | 399 kts | 313° |
| 2026-04-25 20:46 | -52.38131 | -71.85787 | 11979 ft | 394 kts | 313° |
| 2026-04-25 20:46 | -52.36167 | -71.88884 | 11356 ft | 391 kts | 313° |
| 2026-04-25 20:47 | -52.34235 | -71.91921 | 11025 ft | 377 kts | 313° |
| 2026-04-25 20:47 | -52.32424 | -71.94753 | 10872 ft | 346 kts | 312° |
| 2026-04-25 20:47 | -52.30756 | -71.97353 | 10745 ft | 320 kts | 312° |
| 2026-04-25 20:47 | -52.29187 | -71.99802 | 10535 ft | 308 kts | 311° |
| 2026-04-25 20:48 | -52.27655 | -72.02202 | 10277 ft | 303 kts | 311° |
| 2026-04-25 20:48 | -52.26146 | -72.04573 | 10033 ft | 300 kts | 311° |
| 2026-04-25 20:48 | -52.24657 | -72.06911 | 9858 ft | 297 kts | 311° |
| 2026-04-25 20:48 | -52.23171 | -72.09234 | 9736 ft | 297 kts | 312° |
| 2026-04-25 20:49 | -52.21525 | -72.11293 | 9605 ft | 302 kts | 325° |
| 2026-04-25 20:49 | -52.19646 | -72.12837 | 9488 ft | 304 kts | 331° |
| 2026-04-25 20:49 | -52.17739 | -72.14305 | 9359 ft | 304 kts | 331° |
| 2026-04-25 20:49 | -52.15826 | -72.15771 | 9208 ft | 304 kts | 331° |
| 2026-04-25 20:50 | -52.13916 | -72.17237 | 8863 ft | 304 kts | 331° |
| 2026-04-25 20:50 | -52.12013 | -72.18698 | 8486 ft | 303 kts | 331° |
| 2026-04-25 20:50 | -52.10115 | -72.20154 | 8101 ft | 302 kts | 331° |
| 2026-04-25 20:50 | -52.08224 | -72.21602 | 7735 ft | 300 kts | 330° |
| 2026-04-25 20:51 | -52.06351 | -72.23038 | 7355 ft | 298 kts | 330° |
| 2026-04-25 20:51 | -52.04492 | -72.24462 | 6999 ft | 294 kts | 330° |
| 2026-04-25 20:51 | -52.02646 | -72.25874 | 6618 ft | 291 kts | 330° |
| 2026-04-25 20:51 | -52.00825 | -72.27266 | 6229 ft | 289 kts | 330° |
| 2026-04-25 20:52 | -51.99015 | -72.28648 | 5848 ft | 287 kts | 330° |
| 2026-04-25 20:52 | -51.98417 | -72.29107 | 5723 ft | 286 kts | 330° |
| 2026-04-25 20:52 | -51.95452 | -72.31386 | 5098 ft | 282 kts | 330° |
| 2026-04-25 20:52 | -51.93681 | -72.32742 | 4617 ft | 283 kts | 330° |
| 2026-04-25 20:53 | -51.91908 | -72.34094 | 4245 ft | 280 kts | 330° |
| 2026-04-25 20:53 | -51.90155 | -72.35420 | 3917 ft | 276 kts | 330° |
| 2026-04-25 20:53 | -51.88403 | -72.36632 | 3663 ft | 275 kts | 339° |
| 2026-04-25 20:53 | -51.86517 | -72.37160 | 3516 ft | 276 kts | 355° |
| 2026-04-25 20:54 | -51.84667 | -72.36958 | 3523 ft | 259 kts | 4° |
| 2026-04-25 20:54 | -51.82883 | -72.36654 | 3096 ft | 262 kts | 3° |
| 2026-04-25 20:54 | -51.81091 | -72.36357 | 2839 ft | 253 kts | 3° |
| 2026-04-25 20:54 | -51.79399 | -72.36074 | 2721 ft | 240 kts | 3° |
| 2026-04-25 20:55 | -51.77784 | -72.35803 | 2613 ft | 231 kts | 2° |
| 2026-04-25 20:55 | -51.76219 | -72.35550 | 2505 ft | 220 kts | 359° |
| 2026-04-25 20:55 | -51.74785 | -72.35777 | 2385 ft | 196 kts | 340° |
| 2026-04-25 20:55 | -51.73602 | -72.36550 | 2261 ft | 172 kts | 323° |
| 2026-04-25 20:56 | -51.72693 | -72.37631 | 2165 ft | 154 kts | 309° |
| 2026-04-25 20:56 | -51.72019 | -72.38890 | 2074 ft | 144 kts | 297° |
| 2026-04-25 20:56 | -51.71522 | -72.40243 | 1954 ft | 140 kts | 291° |
| 2026-04-25 20:56 | -51.71042 | -72.41597 | 1740 ft | 139 kts | 292° |
| 2026-04-25 20:57 | -51.70569 | -72.42947 | 1535 ft | 138 kts | 293° |
| 2026-04-25 20:57 | -51.70095 | -72.44288 | 1347 ft | 138 kts | 292° |
| 2026-04-25 20:57 | -51.69620 | -72.45629 | 1151 ft | 138 kts | 293° |
| 2026-04-25 20:57 | -51.69148 | -72.46964 | 961 ft | 137 kts | 294° |
| 2026-04-25 20:58 | -51.68677 | -72.48296 | 779 ft | 137 kts | 294° |
| 2026-04-25 20:58 | -51.68208 | -72.49619 | 585 ft | 137 kts | 295° |
| 2026-04-25 20:58 | -51.67751 | -72.50957 | 361 ft | 136 kts | 295° |
| 2026-04-25 20:58 | -51.67306 | -72.52249 | 226 ft | 114 kts | 297° |
| 2026-04-25 20:59 | -51.67053 | -72.52922 | 223 ft | 22 kts | 301° |
| 2026-04-25 20:59 | -51.67000 | -72.53017 | 223 ft | 8 kts | 344° |
| 2026-04-25 20:59 | -51.66975 | -72.53011 | 223 ft | 0 kts | 18° |
| 2026-04-25 20:59 | -51.66966 | -72.53005 | 223 ft | 1 kts | 22° |
| 2026-04-25 21:00 | -51.66941 | -72.52984 | 223 ft | 7 kts | 28° |
| 2026-04-25 21:00 | -51.66928 | -72.52973 | 223 ft | 3 kts | 27° |
| 2026-04-25 21:00 | -51.66881 | -72.52953 | 223 ft | 6 kts | 328° |
| 2026-04-25 21:01 | -51.66868 | -72.52988 | 222 ft | 0 kts | 292° |